Time;durP1;ratioP1;P1;durP2;ratioP2;P2;SDS_P1;SDS_P2;PMS_P1;PMS_P2;Temp;Humidity;BMP_temperature;BMP_pressure;BME280_temperature;BME280_humidity;BME280_pressure;Samples;Min_cycle;Max_cycle;Signal;HPM_P1;HPM_P2
2021/03/05 00:00:15;;;;;;;;;;;12.20;64.80;;;;;;2089803;28;712;-51
2021/03/05 00:01:34;;;;;;;;;;;12.20;65.00;;;;;;2089838;28;741;-50
2021/03/05 00:02:53;;;;;;;;;;;12.20;65.00;;;;;;2088852;28;1532;-50
2021/03/05 00:04:13;;;;;;;;;;;12.20;65.00;;;;;;2085792;28;753;-50
2021/03/05 00:05:32;;;;;;;;;;;12.20;64.80;;;;;;2088958;28;761;-49
2021/03/05 00:06:51;;;;;;;;;;;12.10;64.80;;;;;;2089631;28;720;-50
2021/03/05 00:08:11;;;;;;;;;;;12.10;64.80;;;;;;2089700;28;930;-51
2021/03/05 00:09:30;;;;;;;;;;;12.10;64.80;;;;;;2085977;28;1265;-49
2021/03/05 00:10:49;;;;;;;;;;;12.20;65.70;;;;;;2087028;28;989;-50
2021/03/05 00:12:12;;;;;;;;;;;12.10;64.90;;;;;;2086863;28;1316;-50
2021/03/05 00:13:31;;;;;;;;;;;12.10;65.70;;;;;;2081050;28;1470;-50
2021/03/05 00:14:50;;;;;;;;;;;12.10;65.00;;;;;;2088952;28;1554;-51
2021/03/05 00:16:10;;;;;;;;;;;12.10;64.90;;;;;;2086919;28;1453;-50
2021/03/05 00:17:29;;;;;;;;;;;12.10;65.00;;;;;;2088885;28;1327;-50
2021/03/05 00:18:48;;;;;;;;;;;12.10;65.00;;;;;;2089040;28;732;-51
2021/03/05 00:20:11;;;;;;;;;;;12.10;64.80;;;;;;2086514;28;1142;-54
2021/03/05 00:21:30;;;;;;;;;;;12.10;64.90;;;;;;2081354;28;1977;-51
2021/03/05 00:22:49;;;;;;;;;;;12.10;64.80;;;;;;2089354;28;1298;-51
2021/03/05 00:24:09;;;;;;;;;;;12.10;65.00;;;;;;2089688;28;1085;-49
2021/03/05 00:25:28;;;;;;;;;;;12.10;65.10;;;;;;2088187;28;753;-49
2021/03/05 00:26:47;;;;;;;;;;;12.10;65.10;;;;;;2089274;28;725;-50
2021/03/05 00:28:07;;;;;;;;;;;12.10;65.10;;;;;;2089746;28;707;-50
2021/03/05 00:29:26;;;;;;;;;;;12.10;65.00;;;;;;2088828;28;771;-50
2021/03/05 00:30:45;;;;;;;;;;;12.10;65.10;;;;;;2088935;28;730;-49
2021/03/05 00:32:04;;;;;;;;;;;12.10;65.10;;;;;;2085614;28;1457;-50
2021/03/05 00:33:24;;;;;;;;;;;12.10;65.20;;;;;;2085398;28;1532;-50
2021/03/05 00:34:43;;;;;;;;;;;12.10;65.10;;;;;;2081319;28;819;-49
2021/03/05 00:36:02;;;;;;;;;;;12.10;65.20;;;;;;2081277;28;797;-50
2021/03/05 00:37:21;;;;;;;;;;;12.10;65.20;;;;;;2080735;28;763;-52
2021/03/05 00:38:41;;;;;;;;;;;12.10;65.80;;;;;;2091119;28;1041;-52
2021/03/05 00:40:00;;;;;;;;;;;12.00;65.00;;;;;;2093440;28;987;-52
2021/03/05 00:41:19;;;;;;;;;;;12.10;65.80;;;;;;2095867;28;1967;-52
2021/03/05 00:42:38;;;;;;;;;;;12.00;64.90;;;;;;2097684;28;1329;-51
2021/03/05 00:43:58;;;;;;;;;;;12.00;65.00;;;;;;2097222;28;721;-52
2021/03/05 00:45:18;;;;;;;;;;;12.00;65.00;;;;;;2093223;28;797;-52
2021/03/05 00:46:40;;;;;;;;;;;12.00;65.00;;;;;;2086274;28;749;-50
2021/03/05 00:47:59;;;;;;;;;;;12.00;65.10;;;;;;2090760;28;751;-50
2021/03/05 00:49:19;;;;;;;;;;;12.00;65.00;;;;;;2093964;28;763;-49
2021/03/05 00:50:38;;;;;;;;;;;12.00;65.00;;;;;;2094034;28;749;-50
2021/03/05 00:51:58;;;;;;;;;;;12.00;65.10;;;;;;2086422;28;1503;-50
2021/03/05 00:53:17;;;;;;;;;;;12.00;65.80;;;;;;2081774;28;1591;-50
2021/03/05 00:54:37;;;;;;;;;;;12.00;65.20;;;;;;2096027;28;1029;-50
2021/03/05 00:55:56;;;;;;;;;;;12.00;65.30;;;;;;2096805;28;712;-51
2021/03/05 00:57:17;;;;;;;;;;;12.00;65.10;;;;;;2096975;28;710;-50
2021/03/05 00:58:36;;;;;;;;;;;12.00;65.30;;;;;;2093723;28;740;-50
2021/03/05 00:59:58;;;;;;;;;;;12.00;65.30;;;;;;2088594;28;732;-53
2021/03/05 01:01:18;;;;;;;;;;;12.00;65.20;;;;;;2090828;28;1985;-53
2021/03/05 01:02:37;;;;;;;;;;;12.00;65.20;;;;;;2097347;28;1464;-48
2021/03/05 01:03:56;;;;;;;;;;;12.00;65.90;;;;;;2097301;28;736;-49
2021/03/05 01:05:24;;;;;;;;;;;12.00;65.30;;;;;;2088173;28;723;-52
2021/03/05 01:06:44;;;;;;;;;;;12.00;65.30;;;;;;2091706;28;745;-51
2021/03/05 01:08:08;;;;;;;;;;;12.00;65.30;;;;;;2090924;28;940;-52
2021/03/05 01:09:32;;;;;;;;;;;12.00;65.30;;;;;;2093917;28;1075;-52
2021/03/05 01:10:52;;;;;;;;;;;12.00;65.20;;;;;;2092229;28;1120;-49
2021/03/05 01:12:11;;;;;;;;;;;12.00;65.20;;;;;;2082232;28;1977;-52
2021/03/05 01:13:30;;;;;;;;;;;12.00;65.20;;;;;;2089153;28;1374;-49
2021/03/05 01:14:49;;;;;;;;;;;11.90;65.00;;;;;;2088260;28;1408;-50
2021/03/05 01:16:08;;;;;;;;;;;11.90;65.10;;;;;;2086517;28;1499;-49
2021/03/05 01:17:27;;;;;;;;;;;11.90;65.00;;;;;;2088836;28;1603;-52
2021/03/05 01:18:47;;;;;;;;;;;11.90;65.00;;;;;;2085156;28;885;-51
2021/03/05 01:20:13;;;;;;;;;;;11.90;65.80;;;;;;2088699;28;1035;-52
2021/03/05 01:21:32;;;;;;;;;;;11.90;65.80;;;;;;2088492;28;1902;-51
2021/03/05 01:22:52;;;;;;;;;;;11.90;65.20;;;;;;2089120;28;1344;-51
2021/03/05 01:24:11;;;;;;;;;;;11.90;65.10;;;;;;2089430;28;769;-52
2021/03/05 01:25:31;;;;;;;;;;;11.90;65.10;;;;;;2079536;28;1372;-52
2021/03/05 01:26:50;;;;;;;;;;;11.90;65.10;;;;;;2080264;28;1373;-50
2021/03/05 01:28:10;;;;;;;;;;;11.90;65.80;;;;;;2089248;28;683;-51
2021/03/05 01:29:29;;;;;;;;;;;11.90;65.20;;;;;;2089946;28;709;-51
2021/03/05 01:30:48;;;;;;;;;;;11.90;65.20;;;;;;2090671;28;704;-50
2021/03/05 01:32:07;;;;;;;;;;;11.90;65.50;;;;;;2090763;28;687;-50
2021/03/05 01:33:26;;;;;;;;;;;11.90;65.30;;;;;;2089784;28;1532;-50
2021/03/05 01:34:46;;;;;;;;;;;11.90;65.30;;;;;;2082126;28;967;-48
2021/03/05 01:36:05;;;;;;;;;;;11.90;65.50;;;;;;2088897;28;797;-52
2021/03/05 01:37:24;;;;;;;;;;;11.90;65.40;;;;;;2090470;28;733;-49
2021/03/05 01:38:43;;;;;;;;;;;11.90;65.50;;;;;;2086063;28;1308;-50
2021/03/05 01:40:03;;;;;;;;;;;11.90;65.30;;;;;;2093882;28;1035;-53
2021/03/05 01:41:23;;;;;;;;;;;11.90;65.30;;;;;;2097899;28;1905;-52
2021/03/05 01:42:42;;;;;;;;;;;11.90;65.20;;;;;;2099005;28;1369;-52
2021/03/05 01:44:01;;;;;;;;;;;11.90;65.20;;;;;;2098073;28;740;-50
2021/03/05 01:45:21;;;;;;;;;;;11.90;66.10;;;;;;2098103;28;726;-51
2021/03/05 01:46:40;;;;;;;;;;;11.90;65.20;;;;;;2098926;28;720;-49
2021/03/05 01:48:01;;;;;;;;;;;11.90;65.50;;;;;;2098949;28;723;-50
2021/03/05 01:49:20;;;;;;;;;;;11.90;65.30;;;;;;2093548;28;1762;-52
2021/03/05 01:50:55;;;;;;;;;;;11.80;65.30;;;;;;2097307;28;955;-50
2021/03/05 01:52:15;;;;;;;;;;;11.80;65.20;;;;;;2096377;28;1086;-50
2021/03/05 01:53:34;;;;;;;;;;;11.80;65.20;;;;;;2098813;28;1490;-50
2021/03/05 01:54:53;;;;;;;;;;;11.80;65.20;;;;;;2098544;28;747;-53
2021/03/05 01:56:32;;;;;;;;;;;11.80;65.40;;;;;;2087788;28;1454;-49
2021/03/05 01:57:51;;;;;;;;;;;11.80;65.40;;;;;;2084680;28;1592;-52
2021/03/05 01:59:11;;;;;;;;;;;11.80;65.50;;;;;;2086855;28;771;-52
2021/03/05 02:00:32;;;;;;;;;;;11.80;65.50;;;;;;2090236;28;720;-52
2021/03/05 02:01:51;;;;;;;;;;;11.80;65.60;;;;;;2089916;28;715;-49
2021/03/05 02:03:10;;;;;;;;;;;11.80;65.60;;;;;;2089818;28;1312;-49
2021/03/05 02:04:30;;;;;;;;;;;11.80;65.70;;;;;;2090610;28;778;-52
2021/03/05 02:05:49;;;;;;;;;;;11.80;65.60;;;;;;2089675;28;750;-52
2021/03/05 02:07:08;;;;;;;;;;;11.80;65.50;;;;;;2090354;28;751;-51
2021/03/05 02:08:27;;;;;;;;;;;11.80;65.50;;;;;;2090637;28;707;-49
2021/03/05 02:09:47;;;;;;;;;;;11.80;65.40;;;;;;2090178;28;1378;-50
2021/03/05 02:11:06;;;;;;;;;;;11.80;65.30;;;;;;2097760;28;2048;-49
2021/03/05 02:12:25;;;;;;;;;;;11.80;65.60;;;;;;2089963;28;1279;-52
2021/03/05 02:13:44;;;;;;;;;;;11.80;66.10;;;;;;2083198;28;1477;-50
2021/03/05 02:15:04;;;;;;;;;;;11.80;66.40;;;;;;2089347;28;1590;-52
2021/03/05 02:16:42;;;;;;;;;;;11.80;66.20;;;;;;2089896;28;1596;-50
2021/03/05 02:18:01;;;;;;;;;;;11.80;65.90;;;;;;2090481;28;700;-50
2021/03/05 02:19:22;;;;;;;;;;;11.80;65.70;;;;;;2089709;28;1020;-50
2021/03/05 02:20:48;;;;;;;;;;;11.70;65.60;;;;;;2091873;28;1967;-52
2021/03/05 02:22:07;;;;;;;;;;;11.70;65.60;;;;;;2093378;28;1184;-50
2021/03/05 02:23:33;;;;;;;;;;;11.70;65.40;;;;;;2090342;28;1479;-52
2021/03/05 02:25:10;;;;;;;;;;;11.70;65.30;;;;;;2084389;28;1570;-52
2021/03/05 02:26:29;;;;;;;;;;;11.70;65.70;;;;;;2090171;28;1075;-51
2021/03/05 02:27:49;;;;;;;;;;;11.70;65.70;;;;;;2082070;28;1339;-50
2021/03/05 02:29:22;;;;;;;;;;;11.70;65.70;;;;;;2090813;28;1118;-50
2021/03/05 02:30:59;;;;;;;;;;;11.70;65.70;;;;;;2083592;28;1326;-49
2021/03/05 02:32:19;;;;;;;;;;;11.70;65.60;;;;;;2092466;28;1235;-48
2021/03/05 02:33:38;;;;;;;;;;;11.70;65.80;;;;;;2088598;28;1237;-51
2021/03/05 02:34:57;;;;;;;;;;;11.70;65.90;;;;;;2086090;28;1395;-52
2021/03/05 02:36:18;;;;;;;;;;;11.70;66.00;;;;;;2093207;28;1255;-52
2021/03/05 02:37:36;;;;;;;;;;;11.70;65.90;;;;;;2091212;28;1363;-52
2021/03/05 02:39:00;;;;;;;;;;;11.70;65.70;;;;;;2089507;28;1292;-50
2021/03/05 02:40:26;;;;;;;;;;;11.70;65.80;;;;;;2093543;28;1411;-49
2021/03/05 02:41:46;;;;;;;;;;;11.70;66.10;;;;;;2088017;28;1409;-50
2021/03/05 02:43:06;;;;;;;;;;;11.70;66.10;;;;;;2086135;28;1526;-49
2021/03/05 02:44:28;;;;;;;;;;;11.70;65.90;;;;;;2095976;28;1292;-50
2021/03/05 02:45:58;;;;;;;;;;;11.70;65.90;;;;;;2096562;28;1240;-52
2021/03/05 02:47:18;;;;;;;;;;;11.70;65.70;;;;;;2096781;28;1195;-51
2021/03/05 02:48:40;;;;;;;;;;;11.70;65.70;;;;;;2093616;28;1285;-52
2021/03/05 02:49:59;;;;;;;;;;;11.70;66.60;;;;;;2096941;28;1114;-50
2021/03/05 02:51:19;;;;;;;;;;;11.70;65.70;;;;;;2094005;28;1418;-50
2021/03/05 02:52:38;;;;;;;;;;;11.70;65.50;;;;;;2090747;28;1518;-51
2021/03/05 02:53:58;;;;;;;;;;;11.70;65.40;;;;;;2094319;28;1270;-52
2021/03/05 02:55:17;;;;;;;;;;;11.70;65.20;;;;;;2096315;28;1369;-50
2021/03/05 02:56:37;;;;;;;;;;;11.80;65.20;;;;;;2095089;28;1310;-51
2021/03/05 02:57:56;;;;;;;;;;;11.80;64.90;;;;;;2094040;28;1388;-51
2021/03/05 02:59:15;;;;;;;;;;;11.90;64.60;;;;;;2096554;28;1202;-51
2021/03/05 03:00:34;;;;;;;;;;;12.00;64.40;;;;;;2096905;28;1371;-51
2021/03/05 03:01:54;;;;;;;;;;;12.00;64.00;;;;;;2093771;28;1211;-51
2021/03/05 03:03:13;;;;;;;;;;;12.00;63.50;;;;;;2097264;28;1379;-52
2021/03/05 03:04:32;;;;;;;;;;;12.10;64.00;;;;;;2096975;28;1299;-49
2021/03/05 03:05:52;;;;;;;;;;;12.10;62.70;;;;;;2088014;28;1292;-50
2021/03/05 03:07:11;;;;;;;;;;;12.20;62.50;;;;;;2091836;28;1254;-50
2021/03/05 03:08:30;;;;;;;;;;;12.20;62.20;;;;;;2081729;28;1595;-50
2021/03/05 03:09:49;;;;;;;;;;;12.20;62.10;;;;;;2089486;28;1065;-52
2021/03/05 03:11:09;;;;;;;;;;;12.20;61.90;;;;;;2095150;28;2022;-49
2021/03/05 03:12:28;;;;;;;;;;;12.30;61.90;;;;;;2095728;28;1199;-50
2021/03/05 03:13:47;;;;;;;;;;;12.30;61.80;;;;;;2087104;28;1243;-49
2021/03/05 03:15:07;;;;;;;;;;;12.30;61.80;;;;;;2086006;28;1236;-52
2021/03/05 03:16:26;;;;;;;;;;;12.30;61.80;;;;;;2094300;28;1173;-50
2021/03/05 03:17:46;;;;;;;;;;;12.30;61.70;;;;;;2085076;28;1193;-49
2021/03/05 03:19:05;;;;;;;;;;;12.30;61.70;;;;;;2092964;28;1424;-50
2021/03/05 03:20:24;;;;;;;;;;;12.20;61.60;;;;;;2086596;28;1184;-51
2021/03/05 03:21:44;;;;;;;;;;;12.20;62.40;;;;;;2082921;28;1713;-49
2021/03/05 03:23:03;;;;;;;;;;;12.20;61.70;;;;;;2090176;28;2132;-50
2021/03/05 03:24:23;;;;;;;;;;;12.20;61.70;;;;;;2086507;28;1857;-51
2021/03/05 03:25:42;;;;;;;;;;;12.20;61.70;;;;;;2092723;28;1186;-50
2021/03/05 03:27:01;;;;;;;;;;;12.20;61.80;;;;;;2093105;28;1152;-51
2021/03/05 03:28:20;;;;;;;;;;;12.20;61.80;;;;;;2092916;28;1359;-51
2021/03/05 03:29:43;;;;;;;;;;;12.20;61.80;;;;;;2096550;28;1206;-50
2021/03/05 03:31:03;;;;;;;;;;;12.20;61.80;;;;;;2093453;28;1368;-52
2021/03/05 03:32:21;;;;;;;;;;;12.20;61.90;;;;;;2095936;28;1283;-50
2021/03/05 03:33:41;;;;;;;;;;;12.20;61.90;;;;;;2094107;28;1092;-50
2021/03/05 03:35:00;;;;;;;;;;;12.20;62.00;;;;;;2092204;28;1294;-51
2021/03/05 03:36:19;;;;;;;;;;;12.20;62.00;;;;;;2094441;28;1367;-49
2021/03/05 03:37:38;;;;;;;;;;;12.20;62.00;;;;;;2092652;28;1420;-50
2021/03/05 03:38:57;;;;;;;;;;;12.20;62.10;;;;;;2093392;28;1364;-49
2021/03/05 03:40:18;;;;;;;;;;;12.20;62.10;;;;;;2091488;28;1071;-50
2021/03/05 03:41:37;;;;;;;;;;;12.10;62.10;;;;;;2089485;28;1942;-48
2021/03/05 03:42:57;;;;;;;;;;;12.10;62.10;;;;;;2087056;28;1395;-51
2021/03/05 03:44:16;;;;;;;;;;;12.10;62.20;;;;;;2086263;28;1247;-50
2021/03/05 03:45:36;;;;;;;;;;;12.10;62.30;;;;;;2088837;28;1230;-50
2021/03/05 03:46:55;;;;;;;;;;;12.10;62.40;;;;;;2094897;28;1400;-50
2021/03/05 03:48:15;;;;;;;;;;;12.10;62.50;;;;;;2091143;28;1349;-52
2021/03/05 03:49:37;;;;;;;;;;;12.20;63.30;;;;;;2089311;28;1259;-51
2021/03/05 03:51:01;;;;;;;;;;;12.20;63.20;;;;;;2092121;28;1195;-49
2021/03/05 03:52:27;;;;;;;;;;;12.20;62.40;;;;;;2090642;28;1013;-49
2021/03/05 03:53:46;;;;;;;;;;;12.30;62.30;;;;;;2094085;28;1411;-53
2021/03/05 03:55:08;;;;;;;;;;;12.30;62.10;;;;;;2089259;28;1425;-50
2021/03/05 03:56:29;;;;;;;;;;;12.30;61.70;;;;;;2084433;28;1254;-50
2021/03/05 03:57:49;;;;;;;;;;;12.40;61.60;;;;;;2090525;28;1464;-50
2021/03/05 03:59:08;;;;;;;;;;;12.40;61.30;;;;;;2091477;28;1283;-50
2021/03/05 04:00:28;;;;;;;;;;;12.50;61.00;;;;;;2081885;28;1204;-49
2021/03/05 04:01:48;;;;;;;;;;;12.50;60.70;;;;;;2077175;28;1214;-53
2021/03/05 04:03:07;;;;;;;;;;;12.60;61.30;;;;;;2088881;28;1512;-50
2021/03/05 04:04:26;;;;;;;;;;;12.60;60.30;;;;;;2096480;28;1184;-50
2021/03/05 04:05:46;;;;;;;;;;;12.60;60.10;;;;;;2091363;28;1257;-52
2021/03/05 04:07:05;;;;;;;;;;;12.70;60.00;;;;;;2090752;28;1274;-50
2021/03/05 04:08:25;;;;;;;;;;;12.70;59.90;;;;;;2083489;28;1236;-50
2021/03/05 04:09:44;;;;;;;;;;;12.70;59.70;;;;;;2084068;28;1213;-51
2021/03/05 04:11:04;;;;;;;;;;;12.80;59.60;;;;;;2088413;28;1415;-51
2021/03/05 04:12:24;;;;;;;;;;;12.80;59.40;;;;;;2092967;28;1386;-49
2021/03/05 04:13:43;;;;;;;;;;;12.80;59.30;;;;;;2091361;28;1576;-49
2021/03/05 04:15:03;;;;;;;;;;;12.90;59.20;;;;;;2091597;28;1343;-51
2021/03/05 04:16:22;;;;;;;;;;;12.90;59.10;;;;;;2095230;28;1261;-48
2021/03/05 04:17:41;;;;;;;;;;;13.00;59.50;;;;;;2094839;28;1151;-53
2021/03/05 04:19:01;;;;;;;;;;;13.00;59.30;;;;;;2090593;28;1335;-50
2021/03/05 04:20:20;;;;;;;;;;;13.10;58.70;;;;;;2093562;28;1983;-51
2021/03/05 04:21:40;;;;;;;;;;;13.10;58.60;;;;;;2095799;28;1914;-53
2021/03/05 04:22:59;;;;;;;;;;;13.20;58.60;;;;;;2088045;28;1524;-52
2021/03/05 04:24:19;;;;;;;;;;;13.20;58.50;;;;;;2090670;28;1997;-53
2021/03/05 04:25:39;;;;;;;;;;;13.30;58.50;;;;;;2081974;28;1279;-49
2021/03/05 04:26:58;;;;;;;;;;;13.40;58.70;;;;;;2087437;28;1770;-53
2021/03/05 04:28:17;;;;;;;;;;;13.50;58.40;;;;;;2097214;28;1407;-52
2021/03/05 04:29:36;;;;;;;;;;;13.50;57.90;;;;;;2091160;28;1386;-52
2021/03/05 04:30:56;;;;;;;;;;;13.60;57.80;;;;;;2090024;28;1298;-52
2021/03/05 04:32:15;;;;;;;;;;;13.60;57.60;;;;;;2094994;28;1318;-52
2021/03/05 04:33:35;;;;;;;;;;;13.70;57.50;;;;;;2092704;28;1525;-52
2021/03/05 04:34:54;;;;;;;;;;;13.70;57.30;;;;;;2093375;28;1610;-51
2021/03/05 04:36:14;;;;;;;;;;;13.70;57.10;;;;;;2097141;28;1284;-51
2021/03/05 04:37:33;;;;;;;;;;;13.80;57.10;;;;;;2095792;28;1280;-52
2021/03/05 04:38:52;;;;;;;;;;;13.80;56.90;;;;;;2094477;28;1191;-52
2021/03/05 04:40:11;;;;;;;;;;;13.90;56.90;;;;;;2091669;28;1232;-51
2021/03/05 04:41:30;;;;;;;;;;;13.90;56.70;;;;;;2095894;28;1979;-51
2021/03/05 04:42:50;;;;;;;;;;;14.00;56.70;;;;;;2096013;28;1479;-51
2021/03/05 04:44:09;;;;;;;;;;;14.00;56.50;;;;;;2094014;28;1304;-50
2021/03/05 04:45:28;;;;;;;;;;;14.10;56.40;;;;;;2090304;28;1088;-50
2021/03/05 04:46:47;;;;;;;;;;;14.10;56.30;;;;;;2096246;28;1306;-51
2021/03/05 04:48:07;;;;;;;;;;;14.10;56.10;;;;;;2084047;28;1692;-51
2021/03/05 04:49:26;;;;;;;;;;;14.20;56.20;;;;;;2079980;28;1367;-51
2021/03/05 04:50:45;;;;;;;;;;;14.20;56.00;;;;;;2085047;28;1282;-51
2021/03/05 04:52:04;;;;;;;;;;;14.20;56.50;;;;;;2089473;28;1193;-50
2021/03/05 04:53:23;;;;;;;;;;;14.20;56.00;;;;;;2095473;28;1436;-52
2021/03/05 04:54:42;;;;;;;;;;;14.20;56.00;;;;;;2095574;28;1234;-51
2021/03/05 04:56:02;;;;;;;;;;;14.20;56.00;;;;;;2091858;28;1172;-51
2021/03/05 04:57:21;;;;;;;;;;;14.20;56.00;;;;;;2090374;28;1223;-51
2021/03/05 04:58:41;;;;;;;;;;;14.20;56.10;;;;;;2090256;28;1364;-50
2021/03/05 05:00:00;;;;;;;;;;;14.20;56.10;;;;;;2088650;28;1334;-50
2021/03/05 05:01:19;;;;;;;;;;;14.20;56.10;;;;;;2088362;28;2282;-51
2021/03/05 05:02:39;;;;;;;;;;;14.20;56.20;;;;;;2088408;28;1401;-51
2021/03/05 05:03:58;;;;;;;;;;;14.20;56.30;;;;;;2089884;28;1357;-51
2021/03/05 05:05:17;;;;;;;;;;;14.20;56.30;;;;;;2091994;28;1353;-52
2021/03/05 05:06:37;;;;;;;;;;;14.10;56.30;;;;;;2088825;28;1201;-53
2021/03/05 05:07:56;;;;;;;;;;;14.10;56.40;;;;;;2087706;28;1297;-53
2021/03/05 05:09:15;;;;;;;;;;;14.10;57.00;;;;;;2089113;28;1324;-49
2021/03/05 05:10:34;;;;;;;;;;;14.10;57.00;;;;;;2089984;28;1541;-51
2021/03/05 05:11:53;;;;;;;;;;;14.10;56.60;;;;;;2091214;28;1132;-51
2021/03/05 05:13:13;;;;;;;;;;;14.10;56.70;;;;;;2088903;28;1432;-51
2021/03/05 05:14:32;;;;;;;;;;;14.10;56.70;;;;;;2090565;28;1274;-50
2021/03/05 05:15:51;;;;;;;;;;;14.10;56.70;;;;;;2090458;28;1135;-51
2021/03/05 05:17:10;;;;;;;;;;;14.00;56.70;;;;;;2090776;28;1375;-54
2021/03/05 05:18:30;;;;;;;;;;;14.10;56.90;;;;;;2086725;28;1391;-50
2021/03/05 05:19:49;;;;;;;;;;;14.00;56.90;;;;;;2090224;28;1454;-53
2021/03/05 05:21:08;;;;;;;;;;;14.00;57.00;;;;;;2088729;28;1972;-50
2021/03/05 05:22:30;;;;;;;;;;;14.00;57.10;;;;;;2091828;28;1176;-52
2021/03/05 05:23:50;;;;;;;;;;;14.00;57.10;;;;;;2090673;28;1899;-51
2021/03/05 05:25:09;;;;;;;;;;;14.00;57.30;;;;;;2089465;28;2189;-50
2021/03/05 05:26:28;;;;;;;;;;;13.90;57.30;;;;;;2088046;28;1140;-50
2021/03/05 05:27:47;;;;;;;;;;;13.90;57.40;;;;;;2089758;28;1423;-51
2021/03/05 05:29:06;;;;;;;;;;;13.90;57.50;;;;;;2091917;28;1439;-51
2021/03/05 05:30:26;;;;;;;;;;;13.90;57.60;;;;;;2089940;28;1209;-51
2021/03/05 05:31:45;;;;;;;;;;;13.90;57.70;;;;;;2089969;28;1310;-51
2021/03/05 05:33:04;;;;;;;;;;;13.80;57.70;;;;;;2091041;28;1947;-53
2021/03/05 05:34:24;;;;;;;;;;;13.80;57.80;;;;;;2089939;28;1202;-51
2021/03/05 05:35:43;;;;;;;;;;;13.80;57.90;;;;;;2089513;28;1144;-51
2021/03/05 05:37:02;;;;;;;;;;;13.80;58.00;;;;;;2089383;28;1185;-54
2021/03/05 05:38:21;;;;;;;;;;;13.70;58.10;;;;;;2089664;28;1206;-52
2021/03/05 05:39:40;;;;;;;;;;;13.70;58.20;;;;;;2088600;28;998;-53
2021/03/05 05:41:03;;;;;;;;;;;13.70;58.30;;;;;;2086095;28;1977;-53
2021/03/05 05:42:22;;;;;;;;;;;13.60;58.30;;;;;;2084539;28;1157;-50
2021/03/05 05:43:41;;;;;;;;;;;13.60;58.50;;;;;;2093497;28;1332;-51
2021/03/05 05:45:00;;;;;;;;;;;13.60;58.50;;;;;;2088843;28;1427;-53
2021/03/05 05:46:20;;;;;;;;;;;13.70;58.90;;;;;;2091577;28;1145;-53
2021/03/05 05:47:40;;;;;;;;;;;13.70;58.90;;;;;;2095119;28;1146;-50
2021/03/05 05:48:59;;;;;;;;;;;13.70;59.10;;;;;;2091252;28;1421;-51
2021/03/05 05:50:18;;;;;;;;;;;13.70;58.70;;;;;;2089505;28;1357;-52
2021/03/05 05:51:38;;;;;;;;;;;13.70;58.50;;;;;;2078159;28;1061;-52
2021/03/05 05:52:57;;;;;;;;;;;13.70;58.40;;;;;;2088719;28;1471;-51
2021/03/05 05:54:22;;;;;;;;;;;13.60;58.60;;;;;;2087532;28;1234;-52
2021/03/05 05:55:42;;;;;;;;;;;13.60;58.90;;;;;;2090751;28;1075;-50
2021/03/05 05:57:01;;;;;;;;;;;13.60;59.10;;;;;;2090187;28;1301;-52
2021/03/05 05:58:21;;;;;;;;;;;13.50;59.30;;;;;;2086491;28;1878;-51
2021/03/05 05:59:40;;;;;;;;;;;13.50;59.40;;;;;;2085780;28;1191;-50
2021/03/05 06:00:59;;;;;;;;;;;13.50;59.50;;;;;;2091852;28;1979;-52
2021/03/05 06:02:19;;;;;;;;;;;13.50;59.60;;;;;;2090093;28;1264;-50
2021/03/05 06:03:38;;;;;;;;;;;13.40;59.60;;;;;;2089178;28;1381;-51
2021/03/05 06:04:57;;;;;;;;;;;13.40;59.70;;;;;;2088888;28;1233;-49
2021/03/05 06:06:16;;;;;;;;;;;13.40;59.70;;;;;;2091117;28;939;-51
2021/03/05 06:07:36;;;;;;;;;;;13.40;59.90;;;;;;2091159;28;1341;-51
2021/03/05 06:08:55;;;;;;;;;;;13.40;60.60;;;;;;2089294;28;1295;-51
2021/03/05 06:10:15;;;;;;;;;;;13.40;60.00;;;;;;2090899;28;1200;-51
2021/03/05 06:11:34;;;;;;;;;;;13.30;60.00;;;;;;2093309;28;1260;-51
2021/03/05 06:12:54;;;;;;;;;;;13.30;60.10;;;;;;2089116;28;1480;-50
2021/03/05 06:14:13;;;;;;;;;;;13.30;60.20;;;;;;2091336;28;1179;-50
2021/03/05 06:15:32;;;;;;;;;;;13.30;60.30;;;;;;2088314;28;1294;-49
2021/03/05 06:16:55;;;;;;;;;;;13.30;60.40;;;;;;2089161;28;2002;-51
2021/03/05 06:18:30;;;;;;;;;;;13.30;60.50;;;;;;2091238;28;1180;-49
2021/03/05 06:19:55;;;;;;;;;;;13.20;60.50;;;;;;2090279;28;1417;-49
2021/03/05 06:21:14;;;;;;;;;;;13.20;60.50;;;;;;2090047;28;1971;-50
2021/03/05 06:22:33;;;;;;;;;;;13.20;60.60;;;;;;2090432;28;1238;-51
2021/03/05 06:23:57;;;;;;;;;;;13.20;60.70;;;;;;2089050;28;2157;-50
2021/03/05 06:25:32;;;;;;;;;;;13.20;60.70;;;;;;2089836;28;1370;-49
2021/03/05 06:26:58;;;;;;;;;;;13.20;60.80;;;;;;2091803;28;1248;-50
2021/03/05 06:28:17;;;;;;;;;;;13.10;60.80;;;;;;2088216;28;1163;-50
2021/03/05 06:29:45;;;;;;;;;;;13.10;60.80;;;;;;2084255;28;1383;-50
2021/03/05 06:31:14;;;;;;;;;;;13.10;61.00;;;;;;2090048;28;1359;-49
2021/03/05 06:32:40;;;;;;;;;;;13.10;61.00;;;;;;2089538;28;1291;-50
2021/03/05 06:34:00;;;;;;;;;;;13.10;61.70;;;;;;2090565;28;1237;-49
2021/03/05 06:35:23;;;;;;;;;;;13.10;61.10;;;;;;2090194;28;1306;-49
2021/03/05 06:36:42;;;;;;;;;;;13.10;61.10;;;;;;2090483;28;1170;-49
2021/03/05 06:38:01;;;;;;;;;;;13.10;61.20;;;;;;2086001;28;1311;-49
2021/03/05 06:39:24;;;;;;;;;;;13.10;61.30;;;;;;2090596;28;1092;-49
2021/03/05 06:40:43;;;;;;;;;;;13.00;61.20;;;;;;2091773;28;1314;-49
2021/03/05 06:42:03;;;;;;;;;;;13.10;61.30;;;;;;2086986;28;1402;-49
2021/03/05 06:43:40;;;;;;;;;;;13.00;61.30;;;;;;2085548;28;1474;-47
2021/03/05 06:45:07;;;;;;;;;;;13.00;61.50;;;;;;2089005;28;1408;-51
2021/03/05 06:46:27;;;;;;;;;;;13.00;62.30;;;;;;2081820;28;1486;-50
2021/03/05 06:47:59;;;;;;;;;;;13.00;62.60;;;;;;2084619;28;1072;-50
2021/03/05 06:49:18;;;;;;;;;;;13.10;62.70;;;;;;2089457;28;1303;-51
2021/03/05 06:50:38;;;;;;;;;;;13.10;62.00;;;;;;2091940;28;1321;-50
2021/03/05 06:51:58;;;;;;;;;;;13.00;61.20;;;;;;2090849;28;1437;-51
2021/03/05 06:53:23;;;;;;;;;;;13.10;61.10;;;;;;2087426;28;1420;-51
2021/03/05 06:54:42;;;;;;;;;;;13.10;61.20;;;;;;2089592;28;1271;-51
2021/03/05 06:56:01;;;;;;;;;;;13.10;61.30;;;;;;2089562;28;1298;-49
2021/03/05 06:57:25;;;;;;;;;;;13.10;61.20;;;;;;2089923;28;1252;-51
2021/03/05 06:58:56;;;;;;;;;;;13.10;61.20;;;;;;2088904;28;1390;-51
2021/03/05 07:00:19;;;;;;;;;;;13.00;60.90;;;;;;2089704;28;1277;-51
2021/03/05 07:01:44;;;;;;;;;;;13.10;60.90;;;;;;2089709;28;1914;-48
2021/03/05 07:03:19;;;;;;;;;;;13.10;60.80;;;;;;2089997;28;1799;-51
2021/03/05 07:04:47;;;;;;;;;;;13.10;61.40;;;;;;2086626;28;1328;-51
2021/03/05 07:06:06;;;;;;;;;;;13.10;60.50;;;;;;2089414;28;1374;-50
2021/03/05 07:07:25;;;;;;;;;;;13.00;60.40;;;;;;2086267;28;1052;-52
2021/03/05 07:08:45;;;;;;;;;;;13.10;60.50;;;;;;2087183;28;1172;-50
2021/03/05 07:10:04;;;;;;;;;;;13.10;60.50;;;;;;2089903;28;1289;-49
2021/03/05 07:11:34;;;;;;;;;;;13.10;61.30;;;;;;2088929;28;1033;-50
2021/03/05 07:12:59;;;;;;;;;;;13.10;61.40;;;;;;2087251;28;1435;-51
2021/03/05 07:14:18;;;;;;;;;;;13.00;60.50;;;;;;2087781;28;1176;-50
2021/03/05 07:15:52;;;;;;;;;;;13.10;60.60;;;;;;2089118;28;1318;-51
2021/03/05 07:17:12;;;;;;;;;;;13.00;60.40;;;;;;2092543;28;1167;-50
2021/03/05 07:18:31;;;;;;;;;;;13.00;60.50;;;;;;2080346;28;1239;-51
2021/03/05 07:19:51;;;;;;;;;;;13.00;60.50;;;;;;2084774;28;1156;-50
2021/03/05 07:21:11;;;;;;;;;;;13.00;60.50;;;;;;2087889;28;1980;-49
2021/03/05 07:22:30;;;;;;;;;;;13.00;60.50;;;;;;2079705;28;1362;-49
2021/03/05 07:23:49;;;;;;;;;;;13.00;60.50;;;;;;2086898;28;1932;-48
2021/03/05 07:25:09;;;;;;;;;;;13.00;60.50;;;;;;2086597;28;1323;-48
2021/03/05 07:26:29;;;;;;;;;;;13.00;60.60;;;;;;2087711;28;1184;-49
2021/03/05 07:27:50;;;;;;;;;;;13.00;60.60;;;;;;2085414;28;1284;-50
2021/03/05 07:29:16;;;;;;;;;;;13.00;60.60;;;;;;2089202;28;1140;-48
2021/03/05 07:30:35;;;;;;;;;;;13.00;60.60;;;;;;2088994;28;1332;-51
2021/03/05 07:32:09;;;;;;;;;;;13.00;60.70;;;;;;2087832;28;1000;-49
2021/03/05 07:33:28;;;;;;;;;;;13.00;60.70;;;;;;2089410;28;1453;-50
2021/03/05 07:34:53;;;;;;;;;;;13.00;60.80;;;;;;2089435;28;1240;-50
2021/03/05 07:36:12;;;;;;;;;;;13.00;61.50;;;;;;2087146;28;1319;-49
2021/03/05 07:37:31;;;;;;;;;;;13.00;60.80;;;;;;2089149;28;1497;-49
2021/03/05 07:38:51;;;;;;;;;;;12.90;60.70;;;;;;2088301;28;1290;-51
2021/03/05 07:40:10;;;;;;;;;;;12.90;60.70;;;;;;2089935;28;1269;-49
2021/03/05 07:41:30;;;;;;;;;;;13.00;60.80;;;;;;2088912;28;1971;-49
2021/03/05 07:42:49;;;;;;;;;;;12.90;60.80;;;;;;2087756;28;1474;-49
2021/03/05 07:44:08;;;;;;;;;;;12.90;60.70;;;;;;2091616;28;1515;-49
2021/03/05 07:45:27;;;;;;;;;;;12.90;60.70;;;;;;2089480;28;1176;-51
2021/03/05 07:46:46;;;;;;;;;;;12.90;60.80;;;;;;2075593;28;1493;-49
2021/03/05 07:48:09;;;;;;;;;;;12.90;60.80;;;;;;2087254;28;1311;-50
2021/03/05 07:49:29;;;;;;;;;;;12.90;60.80;;;;;;2081710;28;1315;-49
2021/03/05 07:50:49;;;;;;;;;;;12.90;61.00;;;;;;2086435;28;1333;-48
2021/03/05 07:52:08;;;;;;;;;;;12.90;61.00;;;;;;2086820;28;1144;-51
2021/03/05 07:53:27;;;;;;;;;;;12.90;61.00;;;;;;2081267;28;1445;-49
2021/03/05 07:54:47;;;;;;;;;;;12.90;61.10;;;;;;2084368;28;919;-49
2021/03/05 07:56:06;;;;;;;;;;;12.90;61.10;;;;;;2090090;28;1155;-51